sensor_id;sensor_type;location;lat;lon;timestamp;P1;durP1;ratioP1;P2;durP2;ratioP2
15104;SDS011;7653;48.994;9.212;2023-08-30T00:02:09;18.27;;;14.93;;
15104;SDS011;7653;48.994;9.212;2023-08-30T00:04:34;15.53;;;14.03;;
15104;SDS011;7653;48.994;9.212;2023-08-30T00:07:00;16.47;;;14.83;;
15104;SDS011;7653;48.994;9.212;2023-08-30T00:09:25;17.13;;;15.33;;
15104;SDS011;7653;48.994;9.212;2023-08-30T00:11:51;17.90;;;16.00;;
15104;SDS011;7653;48.994;9.212;2023-08-30T00:14:17;17.80;;;15.90;;
15104;SDS011;7653;48.994;9.212;2023-08-30T00:16:42;17.07;;;15.27;;
15104;SDS011;7653;48.994;9.212;2023-08-30T00:19:08;16.73;;;13.63;;
15104;SDS011;7653;48.994;9.212;2023-08-30T00:21:34;17.87;;;15.00;;
15104;SDS011;7653;48.994;9.212;2023-08-30T00:23:59;16.77;;;14.30;;
15104;SDS011;7653;48.994;9.212;2023-08-30T00:26:25;16.87;;;15.27;;
15104;SDS011;7653;48.994;9.212;2023-08-30T00:28:51;17.17;;;14.53;;
15104;SDS011;7653;48.994;9.212;2023-08-30T00:31:16;18.57;;;15.17;;
15104;SDS011;7653;48.994;9.212;2023-08-30T00:33:42;17.27;;;15.57;;
15104;SDS011;7653;48.994;9.212;2023-08-30T00:36:08;18.63;;;16.73;;
15104;SDS011;7653;48.994;9.212;2023-08-30T00:38:33;17.80;;;15.93;;
15104;SDS011;7653;48.994;9.212;2023-08-30T00:40:59;16.73;;;15.00;;
15104;SDS011;7653;48.994;9.212;2023-08-30T00:43:25;17.27;;;15.53;;
15104;SDS011;7653;48.994;9.212;2023-08-30T00:45:50;19.23;;;17.23;;
15104;SDS011;7653;48.994;9.212;2023-08-30T00:48:17;19.07;;;17.07;;
15104;SDS011;7653;48.994;9.212;2023-08-30T00:50:44;21.20;;;19.10;;
15104;SDS011;7653;48.994;9.212;2023-08-30T00:53:10;20.77;;;18.57;;
15104;SDS011;7653;48.994;9.212;2023-08-30T00:55:37;19.73;;;17.63;;
15104;SDS011;7653;48.994;9.212;2023-08-30T00:58:04;23.03;;;18.47;;
15104;SDS011;7653;48.994;9.212;2023-08-30T01:00:30;18.70;;;16.80;;
15104;SDS011;7653;48.994;9.212;2023-08-30T01:02:56;18.47;;;16.57;;
15104;SDS011;7653;48.994;9.212;2023-08-30T01:05:22;18.60;;;16.53;;
15104;SDS011;7653;48.994;9.212;2023-08-30T01:07:48;19.00;;;17.10;;
15104;SDS011;7653;48.994;9.212;2023-08-30T01:10:15;19.17;;;17.13;;
15104;SDS011;7653;48.994;9.212;2023-08-30T01:12:48;18.03;;;16.23;;
15104;SDS011;7653;48.994;9.212;2023-08-30T01:15:18;18.30;;;16.47;;
15104;SDS011;7653;48.994;9.212;2023-08-30T01:17:44;19.40;;;17.37;;
15104;SDS011;7653;48.994;9.212;2023-08-30T01:20:13;19.77;;;17.70;;
15104;SDS011;7653;48.994;9.212;2023-08-30T01:28:23;19.27;;;17.27;;
15104;SDS011;7653;48.994;9.212;2023-08-30T01:30:52;22.27;;;16.73;;
15104;SDS011;7653;48.994;9.212;2023-08-30T01:33:22;18.20;;;16.30;;
15104;SDS011;7653;48.994;9.212;2023-08-30T01:35:49;19.30;;;17.10;;
15104;SDS011;7653;48.994;9.212;2023-08-30T01:38:15;19.17;;;17.10;;
15104;SDS011;7653;48.994;9.212;2023-08-30T01:40:42;21.07;;;17.57;;
15104;SDS011;7653;48.994;9.212;2023-08-30T01:43:10;19.30;;;17.33;;
15104;SDS011;7653;48.994;9.212;2023-08-30T01:45:38;21.43;;;17.63;;
15104;SDS011;7653;48.994;9.212;2023-08-30T01:48:06;19.73;;;17.60;;
15104;SDS011;7653;48.994;9.212;2023-08-30T01:50:34;20.13;;;17.93;;
15104;SDS011;7653;48.994;9.212;2023-08-30T01:53:00;19.90;;;17.80;;
15104;SDS011;7653;48.994;9.212;2023-08-30T01:55:28;22.37;;;18.83;;
15104;SDS011;7653;48.994;9.212;2023-08-30T01:57:54;20.07;;;18.00;;
15104;SDS011;7653;48.994;9.212;2023-08-30T02:00:20;20.47;;;18.27;;
15104;SDS011;7653;48.994;9.212;2023-08-30T02:02:46;20.93;;;18.37;;
15104;SDS011;7653;48.994;9.212;2023-08-30T02:05:13;19.37;;;17.37;;
15104;SDS011;7653;48.994;9.212;2023-08-30T02:10:25;19.67;;;16.97;;
15104;SDS011;7653;48.994;9.212;2023-08-30T02:12:55;18.87;;;16.87;;
15104;SDS011;7653;48.994;9.212;2023-08-30T02:15:23;17.93;;;16.03;;
15104;SDS011;7653;48.994;9.212;2023-08-30T02:17:50;17.87;;;15.97;;
15104;SDS011;7653;48.994;9.212;2023-08-30T02:20:16;17.13;;;15.33;;
15104;SDS011;7653;48.994;9.212;2023-08-30T02:22:42;17.40;;;15.60;;
15104;SDS011;7653;48.994;9.212;2023-08-30T02:25:08;18.33;;;16.13;;
15104;SDS011;7653;48.994;9.212;2023-08-30T02:27:35;17.17;;;15.47;;
15104;SDS011;7653;48.994;9.212;2023-08-30T02:30:00;17.37;;;15.00;;
15104;SDS011;7653;48.994;9.212;2023-08-30T02:32:27;16.17;;;14.50;;
15104;SDS011;7653;48.994;9.212;2023-08-30T02:34:53;17.37;;;15.10;;
15104;SDS011;7653;48.994;9.212;2023-08-30T02:37:19;15.90;;;14.20;;
15104;SDS011;7653;48.994;9.212;2023-08-30T02:39:44;17.63;;;15.70;;
15104;SDS011;7653;48.994;9.212;2023-08-30T02:42:10;19.00;;;17.10;;
15104;SDS011;7653;48.994;9.212;2023-08-30T02:44:36;18.80;;;14.53;;
15104;SDS011;7653;48.994;9.212;2023-08-30T02:47:01;15.97;;;14.27;;
15104;SDS011;7653;48.994;9.212;2023-08-30T02:49:27;17.10;;;15.30;;
15104;SDS011;7653;48.994;9.212;2023-08-30T02:51:53;15.33;;;13.83;;
15104;SDS011;7653;48.994;9.212;2023-08-30T02:54:18;16.57;;;14.20;;
15104;SDS011;7653;48.994;9.212;2023-08-30T02:56:44;13.93;;;12.47;;
15104;SDS011;7653;48.994;9.212;2023-08-30T02:59:10;15.00;;;13.50;;
15104;SDS011;7653;48.994;9.212;2023-08-30T03:01:36;16.63;;;14.80;;
15104;SDS011;7653;48.994;9.212;2023-08-30T03:04:04;17.60;;;15.90;;
15104;SDS011;7653;48.994;9.212;2023-08-30T03:06:32;18.00;;;16.10;;
15104;SDS011;7653;48.994;9.212;2023-08-30T03:08:58;17.43;;;15.73;;
15104;SDS011;7653;48.994;9.212;2023-08-30T03:11:24;19.77;;;17.67;;
15104;SDS011;7653;48.994;9.212;2023-08-30T03:13:50;19.43;;;17.30;;
15104;SDS011;7653;48.994;9.212;2023-08-30T03:16:16;18.73;;;16.37;;
15104;SDS011;7653;48.994;9.212;2023-08-30T03:18:42;20.47;;;17.00;;
15104;SDS011;7653;48.994;9.212;2023-08-30T03:21:09;19.20;;;17.33;;
15104;SDS011;7653;48.994;9.212;2023-08-30T03:23:35;18.63;;;16.63;;
15104;SDS011;7653;48.994;9.212;2023-08-30T03:26:07;18.77;;;16.17;;
15104;SDS011;7653;48.994;9.212;2023-08-30T03:28:37;18.17;;;16.27;;
15104;SDS011;7653;48.994;9.212;2023-08-30T03:31:10;17.33;;;15.50;;
15104;SDS011;7653;48.994;9.212;2023-08-30T03:33:39;17.97;;;16.20;;
15104;SDS011;7653;48.994;9.212;2023-08-30T03:36:06;20.07;;;17.57;;
15104;SDS011;7653;48.994;9.212;2023-08-30T03:38:33;20.40;;;17.43;;
15104;SDS011;7653;48.994;9.212;2023-08-30T03:40:59;18.93;;;16.57;;
15104;SDS011;7653;48.994;9.212;2023-08-30T03:43:24;19.57;;;17.57;;
15104;SDS011;7653;48.994;9.212;2023-08-30T03:45:50;17.83;;;16.03;;
15104;SDS011;7653;48.994;9.212;2023-08-30T03:48:17;18.63;;;16.70;;
15104;SDS011;7653;48.994;9.212;2023-08-30T03:50:43;17.17;;;15.33;;
15104;SDS011;7653;48.994;9.212;2023-08-30T03:53:08;17.97;;;15.80;;
15104;SDS011;7653;48.994;9.212;2023-08-30T03:55:34;18.77;;;16.20;;
15104;SDS011;7653;48.994;9.212;2023-08-30T03:57:59;20.00;;;16.53;;
15104;SDS011;7653;48.994;9.212;2023-08-30T04:00:25;17.83;;;15.03;;
15104;SDS011;7653;48.994;9.212;2023-08-30T04:02:50;17.33;;;15.53;;
15104;SDS011;7653;48.994;9.212;2023-08-30T04:05:16;18.70;;;14.40;;
15104;SDS011;7653;48.994;9.212;2023-08-30T04:07:42;16.33;;;14.23;;
15104;SDS011;7653;48.994;9.212;2023-08-30T04:10:07;16.63;;;14.93;;
15104;SDS011;7653;48.994;9.212;2023-08-30T04:12:34;17.03;;;15.03;;
15104;SDS011;7653;48.994;9.212;2023-08-30T04:15:01;15.87;;;14.03;;
15104;SDS011;7653;48.994;9.212;2023-08-30T04:17:27;15.90;;;14.30;;
15104;SDS011;7653;48.994;9.212;2023-08-30T04:19:53;18.00;;;15.77;;
15104;SDS011;7653;48.994;9.212;2023-08-30T04:22:19;18.47;;;16.53;;
15104;SDS011;7653;48.994;9.212;2023-08-30T04:24:45;16.77;;;15.07;;
15104;SDS011;7653;48.994;9.212;2023-08-30T04:27:11;16.13;;;14.43;;
15104;SDS011;7653;48.994;9.212;2023-08-30T04:29:37;17.17;;;15.37;;
15104;SDS011;7653;48.994;9.212;2023-08-30T04:32:03;16.83;;;14.70;;
15104;SDS011;7653;48.994;9.212;2023-08-30T04:34:29;18.10;;;16.37;;
15104;SDS011;7653;48.994;9.212;2023-08-30T04:36:55;17.90;;;16.10;;
15104;SDS011;7653;48.994;9.212;2023-08-30T04:39:21;17.50;;;15.60;;
15104;SDS011;7653;48.994;9.212;2023-08-30T04:41:47;16.93;;;15.23;;
15104;SDS011;7653;48.994;9.212;2023-08-30T04:44:12;18.43;;;16.37;;
15104;SDS011;7653;48.994;9.212;2023-08-30T04:46:38;17.50;;;15.67;;
15104;SDS011;7653;48.994;9.212;2023-08-30T04:49:04;17.63;;;15.53;;
15104;SDS011;7653;48.994;9.212;2023-08-30T04:51:29;17.60;;;15.80;;
15104;SDS011;7653;48.994;9.212;2023-08-30T04:53:55;18.70;;;16.80;;
15104;SDS011;7653;48.994;9.212;2023-08-30T04:56:21;17.77;;;15.97;;
15104;SDS011;7653;48.994;9.212;2023-08-30T04:58:46;19.10;;;17.03;;
15104;SDS011;7653;48.994;9.212;2023-08-30T05:01:12;19.10;;;16.93;;
15104;SDS011;7653;48.994;9.212;2023-08-30T05:03:38;20.57;;;18.37;;
15104;SDS011;7653;48.994;9.212;2023-08-30T05:06:05;19.97;;;17.47;;
15104;SDS011;7653;48.994;9.212;2023-08-30T05:08:30;20.23;;;17.57;;
15104;SDS011;7653;48.994;9.212;2023-08-30T05:10:56;18.77;;;16.03;;
15104;SDS011;7653;48.994;9.212;2023-08-30T05:13:22;21.57;;;16.93;;
15104;SDS011;7653;48.994;9.212;2023-08-30T05:15:47;20.27;;;18.17;;
15104;SDS011;7653;48.994;9.212;2023-08-30T05:18:13;18.67;;;16.77;;
15104;SDS011;7653;48.994;9.212;2023-08-30T05:20:39;19.63;;;17.63;;
15104;SDS011;7653;48.994;9.212;2023-08-30T05:23:04;19.50;;;17.50;;
15104;SDS011;7653;48.994;9.212;2023-08-30T05:25:30;18.10;;;16.20;;
15104;SDS011;7653;48.994;9.212;2023-08-30T05:27:55;21.07;;;18.37;;
15104;SDS011;7653;48.994;9.212;2023-08-30T05:30:21;18.07;;;16.10;;
15104;SDS011;7653;48.994;9.212;2023-08-30T05:32:47;19.07;;;17.07;;
15104;SDS011;7653;48.994;9.212;2023-08-30T05:35:12;19.37;;;17.23;;
15104;SDS011;7653;48.994;9.212;2023-08-30T05:37:38;18.63;;;16.80;;
15104;SDS011;7653;48.994;9.212;2023-08-30T05:40:04;18.83;;;16.77;;
15104;SDS011;7653;48.994;9.212;2023-08-30T05:42:30;20.73;;;16.20;;
15104;SDS011;7653;48.994;9.212;2023-08-30T05:44:56;19.83;;;16.83;;
15104;SDS011;7653;48.994;9.212;2023-08-30T05:47:21;18.37;;;16.47;;
15104;SDS011;7653;48.994;9.212;2023-08-30T05:49:47;17.37;;;15.67;;
15104;SDS011;7653;48.994;9.212;2023-08-30T05:52:14;17.47;;;15.77;;
15104;SDS011;7653;48.994;9.212;2023-08-30T05:54:41;16.23;;;14.53;;
15104;SDS011;7653;48.994;9.212;2023-08-30T05:57:07;16.70;;;15.00;;
15104;SDS011;7653;48.994;9.212;2023-08-30T05:59:33;16.30;;;14.70;;
15104;SDS011;7653;48.994;9.212;2023-08-30T06:02:00;16.07;;;14.37;;
15104;SDS011;7653;48.994;9.212;2023-08-30T06:04:26;15.10;;;13.50;;
15104;SDS011;7653;48.994;9.212;2023-08-30T06:06:51;14.97;;;13.10;;
15104;SDS011;7653;48.994;9.212;2023-08-30T06:09:17;16.13;;;14.43;;
15104;SDS011;7653;48.994;9.212;2023-08-30T06:11:42;17.90;;;14.50;;
15104;SDS011;7653;48.994;9.212;2023-08-30T06:14:08;15.80;;;14.30;;
15104;SDS011;7653;48.994;9.212;2023-08-30T06:16:34;15.40;;;13.90;;
15104;SDS011;7653;48.994;9.212;2023-08-30T06:18:59;15.67;;;14.27;;
15104;SDS011;7653;48.994;9.212;2023-08-30T06:21:25;16.40;;;13.40;;
15104;SDS011;7653;48.994;9.212;2023-08-30T06:23:51;14.67;;;13.27;;
15104;SDS011;7653;48.994;9.212;2023-08-30T06:26:17;14.73;;;13.33;;
15104;SDS011;7653;48.994;9.212;2023-08-30T06:28:43;15.93;;;13.70;;
15104;SDS011;7653;48.994;9.212;2023-08-30T06:31:09;15.97;;;14.20;;
15104;SDS011;7653;48.994;9.212;2023-08-30T06:33:35;15.80;;;13.90;;
15104;SDS011;7653;48.994;9.212;2023-08-30T06:36:01;14.50;;;13.10;;
15104;SDS011;7653;48.994;9.212;2023-08-30T06:38:27;17.20;;;13.87;;
15104;SDS011;7653;48.994;9.212;2023-08-30T06:40:52;15.47;;;13.83;;
15104;SDS011;7653;48.994;9.212;2023-08-30T06:43:18;17.73;;;14.70;;
15104;SDS011;7653;48.994;9.212;2023-08-30T06:45:44;15.37;;;13.77;;
15104;SDS011;7653;48.994;9.212;2023-08-30T06:48:11;15.27;;;13.67;;
15104;SDS011;7653;48.994;9.212;2023-08-30T06:50:37;15.33;;;13.80;;
15104;SDS011;7653;48.994;9.212;2023-08-30T06:53:03;15.60;;;14.07;;
15104;SDS011;7653;48.994;9.212;2023-08-30T06:55:29;14.80;;;13.23;;
15104;SDS011;7653;48.994;9.212;2023-08-30T06:57:54;16.17;;;14.57;;
15104;SDS011;7653;48.994;9.212;2023-08-30T07:00:20;15.37;;;13.70;;
15104;SDS011;7653;48.994;9.212;2023-08-30T07:02:46;15.07;;;13.53;;
15104;SDS011;7653;48.994;9.212;2023-08-30T07:05:12;15.30;;;13.77;;
15104;SDS011;7653;48.994;9.212;2023-08-30T07:07:38;14.93;;;13.37;;
15104;SDS011;7653;48.994;9.212;2023-08-30T07:10:04;15.87;;;13.90;;
15104;SDS011;7653;48.994;9.212;2023-08-30T07:12:30;15.37;;;13.80;;
15104;SDS011;7653;48.994;9.212;2023-08-30T07:14:56;17.17;;;14.07;;
15104;SDS011;7653;48.994;9.212;2023-08-30T07:17:21;17.17;;;15.33;;
15104;SDS011;7653;48.994;9.212;2023-08-30T07:19:48;16.23;;;14.33;;
15104;SDS011;7653;48.994;9.212;2023-08-30T07:22:14;17.27;;;14.40;;
15104;SDS011;7653;48.994;9.212;2023-08-30T07:24:42;15.20;;;13.03;;
15104;SDS011;7653;48.994;9.212;2023-08-30T07:27:08;15.73;;;14.20;;
15104;SDS011;7653;48.994;9.212;2023-08-30T07:29:34;15.93;;;14.43;;
15104;SDS011;7653;48.994;9.212;2023-08-30T07:31:59;15.70;;;14.13;;
15104;SDS011;7653;48.994;9.212;2023-08-30T07:34:25;14.67;;;13.30;;
15104;SDS011;7653;48.994;9.212;2023-08-30T07:36:53;15.17;;;13.77;;
15104;SDS011;7653;48.994;9.212;2023-08-30T07:39:20;17.50;;;15.67;;
15104;SDS011;7653;48.994;9.212;2023-08-30T07:41:46;18.17;;;15.63;;
15104;SDS011;7653;48.994;9.212;2023-08-30T07:44:11;16.63;;;14.83;;
15104;SDS011;7653;48.994;9.212;2023-08-30T07:46:37;17.00;;;15.40;;
15104;SDS011;7653;48.994;9.212;2023-08-30T07:49:02;16.40;;;14.83;;
15104;SDS011;7653;48.994;9.212;2023-08-30T07:51:28;15.63;;;13.93;;
15104;SDS011;7653;48.994;9.212;2023-08-30T07:53:54;15.03;;;13.53;;
15104;SDS011;7653;48.994;9.212;2023-08-30T07:56:19;14.80;;;13.27;;
15104;SDS011;7653;48.994;9.212;2023-08-30T07:58:45;15.83;;;14.20;;
15104;SDS011;7653;48.994;9.212;2023-08-30T08:01:11;14.20;;;12.80;;
15104;SDS011;7653;48.994;9.212;2023-08-30T08:03:36;13.17;;;11.97;;
15104;SDS011;7653;48.994;9.212;2023-08-30T08:06:02;13.70;;;12.40;;
15104;SDS011;7653;48.994;9.212;2023-08-30T08:08:28;12.00;;;10.80;;
15104;SDS011;7653;48.994;9.212;2023-08-30T08:10:54;11.93;;;10.73;;
15104;SDS011;7653;48.994;9.212;2023-08-30T08:13:20;13.20;;;11.83;;
15104;SDS011;7653;48.994;9.212;2023-08-30T08:15:45;13.87;;;12.47;;
15104;SDS011;7653;48.994;9.212;2023-08-30T08:18:11;12.23;;;11.13;;
15104;SDS011;7653;48.994;9.212;2023-08-30T08:20:37;13.23;;;11.97;;
15104;SDS011;7653;48.994;9.212;2023-08-30T08:23:04;12.30;;;11.20;;
15104;SDS011;7653;48.994;9.212;2023-08-30T08:25:29;12.87;;;11.60;;
15104;SDS011;7653;48.994;9.212;2023-08-30T08:27:55;11.27;;;10.20;;
15104;SDS011;7653;48.994;9.212;2023-08-30T08:30:21;11.07;;;10.07;;
15104;SDS011;7653;48.994;9.212;2023-08-30T08:32:47;12.60;;;11.40;;
15104;SDS011;7653;48.994;9.212;2023-08-30T08:35:13;12.30;;;11.10;;
15104;SDS011;7653;48.994;9.212;2023-08-30T08:37:39;12.33;;;11.03;;
15104;SDS011;7653;48.994;9.212;2023-08-30T08:40:05;11.93;;;10.43;;
15104;SDS011;7653;48.994;9.212;2023-08-30T08:42:34;10.97;;;9.97;;
15104;SDS011;7653;48.994;9.212;2023-08-30T08:45:00;12.63;;;11.37;;
15104;SDS011;7653;48.994;9.212;2023-08-30T08:47:27;11.57;;;10.33;;
15104;SDS011;7653;48.994;9.212;2023-08-30T08:49:55;10.13;;;9.13;;
15104;SDS011;7653;48.994;9.212;2023-08-30T08:52:21;11.17;;;10.13;;
15104;SDS011;7653;48.994;9.212;2023-08-30T08:54:48;10.50;;;9.60;;
15104;SDS011;7653;48.994;9.212;2023-08-30T08:57:14;9.37;;;8.53;;
15104;SDS011;7653;48.994;9.212;2023-08-30T08:59:40;8.07;;;7.27;;
15104;SDS011;7653;48.994;9.212;2023-08-30T09:02:06;9.10;;;8.30;;
15104;SDS011;7653;48.994;9.212;2023-08-30T09:04:35;8.83;;;8.03;;
15104;SDS011;7653;48.994;9.212;2023-08-30T09:07:01;9.30;;;8.30;;
15104;SDS011;7653;48.994;9.212;2023-08-30T09:09:27;10.30;;;9.30;;
15104;SDS011;7653;48.994;9.212;2023-08-30T09:11:53;7.80;;;6.90;;
15104;SDS011;7653;48.994;9.212;2023-08-30T09:14:19;7.23;;;6.53;;
15104;SDS011;7653;48.994;9.212;2023-08-30T09:16:54;8.47;;;7.67;;
15104;SDS011;7653;48.994;9.212;2023-08-30T09:19:21;9.93;;;7.13;;
15104;SDS011;7653;48.994;9.212;2023-08-30T09:21:50;7.20;;;6.60;;
15104;SDS011;7653;48.994;9.212;2023-08-30T09:24:20;8.73;;;6.47;;
15104;SDS011;7653;48.994;9.212;2023-08-30T09:26:47;7.47;;;6.77;;
15104;SDS011;7653;48.994;9.212;2023-08-30T09:29:14;6.90;;;6.30;;
15104;SDS011;7653;48.994;9.212;2023-08-30T09:31:42;7.13;;;6.43;;
15104;SDS011;7653;48.994;9.212;2023-08-30T09:34:08;7.10;;;6.40;;
15104;SDS011;7653;48.994;9.212;2023-08-30T09:39:05;8.83;;;6.17;;
15104;SDS011;7653;48.994;9.212;2023-08-30T09:41:41;6.57;;;5.63;;
15104;SDS011;7653;48.994;9.212;2023-08-30T09:46:43;7.47;;;6.77;;
15104;SDS011;7653;48.994;9.212;2023-08-30T09:49:10;5.57;;;5.07;;
15104;SDS011;7653;48.994;9.212;2023-08-30T09:51:37;5.80;;;5.20;;
15104;SDS011;7653;48.994;9.212;2023-08-30T09:54:11;5.93;;;5.33;;
15104;SDS011;7653;48.994;9.212;2023-08-30T09:56:41;4.90;;;4.50;;
15104;SDS011;7653;48.994;9.212;2023-08-30T09:59:08;5.23;;;4.43;;
15104;SDS011;7653;48.994;9.212;2023-08-30T10:01:36;6.93;;;4.63;;
15104;SDS011;7653;48.994;9.212;2023-08-30T10:04:02;4.93;;;4.43;;
15104;SDS011;7653;48.994;9.212;2023-08-30T10:06:29;4.20;;;3.77;;
15104;SDS011;7653;48.994;9.212;2023-08-30T10:08:55;4.13;;;3.73;;
15104;SDS011;7653;48.994;9.212;2023-08-30T10:11:23;3.87;;;3.50;;
15104;SDS011;7653;48.994;9.212;2023-08-30T10:13:50;4.03;;;3.63;;
15104;SDS011;7653;48.994;9.212;2023-08-30T10:16:18;4.60;;;3.73;;
15104;SDS011;7653;48.994;9.212;2023-08-30T10:18:47;4.63;;;4.10;;
15104;SDS011;7653;48.994;9.212;2023-08-30T10:21:25;3.77;;;3.37;;
15104;SDS011;7653;48.994;9.212;2023-08-30T10:23:52;5.13;;;3.73;;
15104;SDS011;7653;48.994;9.212;2023-08-30T10:26:21;4.30;;;3.73;;
15104;SDS011;7653;48.994;9.212;2023-08-30T10:28:49;4.03;;;3.40;;
15104;SDS011;7653;48.994;9.212;2023-08-30T10:31:17;5.47;;;3.23;;
15104;SDS011;7653;48.994;9.212;2023-08-30T10:33:46;4.10;;;3.70;;
15104;SDS011;7653;48.994;9.212;2023-08-30T10:36:19;3.50;;;3.20;;
15104;SDS011;7653;48.994;9.212;2023-08-30T10:38:49;3.10;;;2.80;;
15104;SDS011;7653;48.994;9.212;2023-08-30T10:41:20;2.60;;;2.40;;
15104;SDS011;7653;48.994;9.212;2023-08-30T10:43:49;2.57;;;2.37;;
15104;SDS011;7653;48.994;9.212;2023-08-30T10:46:32;2.53;;;2.23;;
15104;SDS011;7653;48.994;9.212;2023-08-30T10:49:11;3.50;;;2.70;;
15104;SDS011;7653;48.994;9.212;2023-08-30T10:51:41;2.57;;;2.37;;
15104;SDS011;7653;48.994;9.212;2023-08-30T10:54:10;2.43;;;2.23;;
15104;SDS011;7653;48.994;9.212;2023-08-30T10:56:44;2.73;;;2.40;;
15104;SDS011;7653;48.994;9.212;2023-08-30T10:59:17;2.50;;;2.30;;
15104;SDS011;7653;48.994;9.212;2023-08-30T11:01:45;3.20;;;2.47;;
15104;SDS011;7653;48.994;9.212;2023-08-30T11:04:12;3.57;;;2.77;;
15104;SDS011;7653;48.994;9.212;2023-08-30T11:06:39;4.37;;;3.17;;
15104;SDS011;7653;48.994;9.212;2023-08-30T11:09:06;3.53;;;3.00;;
15104;SDS011;7653;48.994;9.212;2023-08-30T11:11:33;3.70;;;2.77;;
15104;SDS011;7653;48.994;9.212;2023-08-30T11:14:05;2.77;;;2.57;;
15104;SDS011;7653;48.994;9.212;2023-08-30T11:16:33;2.57;;;2.37;;
15104;SDS011;7653;48.994;9.212;2023-08-30T11:19:00;2.83;;;2.60;;
15104;SDS011;7653;48.994;9.212;2023-08-30T11:21:28;3.30;;;2.37;;
15104;SDS011;7653;48.994;9.212;2023-08-30T11:23:55;3.33;;;2.40;;
15104;SDS011;7653;48.994;9.212;2023-08-30T11:26:21;2.80;;;2.60;;
15104;SDS011;7653;48.994;9.212;2023-08-30T11:28:46;4.40;;;2.80;;
15104;SDS011;7653;48.994;9.212;2023-08-30T11:31:23;2.63;;;2.43;;
15104;SDS011;7653;48.994;9.212;2023-08-30T11:33:52;4.90;;;2.40;;
15104;SDS011;7653;48.994;9.212;2023-08-30T11:36:20;3.13;;;2.60;;
15104;SDS011;7653;48.994;9.212;2023-08-30T11:38:47;2.87;;;2.53;;
15104;SDS011;7653;48.994;9.212;2023-08-30T11:41:14;3.23;;;2.40;;
15104;SDS011;7653;48.994;9.212;2023-08-30T11:43:40;3.27;;;2.23;;
15104;SDS011;7653;48.994;9.212;2023-08-30T11:46:06;3.20;;;2.17;;
15104;SDS011;7653;48.994;9.212;2023-08-30T11:48:33;2.23;;;1.83;;
15104;SDS011;7653;48.994;9.212;2023-08-30T11:50:59;3.13;;;1.97;;
15104;SDS011;7653;48.994;9.212;2023-08-30T11:53:25;3.97;;;2.60;;
15104;SDS011;7653;48.994;9.212;2023-08-30T11:55:51;3.33;;;2.20;;
15104;SDS011;7653;48.994;9.212;2023-08-30T11:58:18;2.70;;;2.40;;
15104;SDS011;7653;48.994;9.212;2023-08-30T12:00:44;3.03;;;2.50;;
15104;SDS011;7653;48.994;9.212;2023-08-30T12:03:13;3.20;;;2.43;;
15104;SDS011;7653;48.994;9.212;2023-08-30T12:05:46;2.83;;;2.50;;
15104;SDS011;7653;48.994;9.212;2023-08-30T12:08:19;4.47;;;2.17;;
15104;SDS011;7653;48.994;9.212;2023-08-30T12:10:46;3.30;;;2.80;;
15104;SDS011;7653;48.994;9.212;2023-08-30T12:15:50;3.70;;;2.20;;
15104;SDS011;7653;48.994;9.212;2023-08-30T12:18:22;2.73;;;2.17;;
15104;SDS011;7653;48.994;9.212;2023-08-30T12:21:02;2.23;;;2.03;;
15104;SDS011;7653;48.994;9.212;2023-08-30T12:23:30;2.40;;;2.00;;
15104;SDS011;7653;48.994;9.212;2023-08-30T12:28:31;2.40;;;2.20;;
15104;SDS011;7653;48.994;9.212;2023-08-30T12:30:59;2.90;;;2.47;;
15104;SDS011;7653;48.994;9.212;2023-08-30T12:33:25;2.40;;;2.20;;
15104;SDS011;7653;48.994;9.212;2023-08-30T12:35:51;2.90;;;2.10;;
15104;SDS011;7653;48.994;9.212;2023-08-30T12:38:17;4.20;;;2.10;;
15104;SDS011;7653;48.994;9.212;2023-08-30T12:40:44;2.30;;;2.00;;
15104;SDS011;7653;48.994;9.212;2023-08-30T12:43:10;2.63;;;2.17;;
15104;SDS011;7653;48.994;9.212;2023-08-30T12:45:37;2.30;;;2.10;;
15104;SDS011;7653;48.994;9.212;2023-08-30T12:48:04;2.67;;;2.10;;
15104;SDS011;7653;48.994;9.212;2023-08-30T12:50:29;2.30;;;2.10;;
15104;SDS011;7653;48.994;9.212;2023-08-30T12:52:55;2.83;;;2.13;;
15104;SDS011;7653;48.994;9.212;2023-08-30T12:55:21;2.73;;;2.20;;
15104;SDS011;7653;48.994;9.212;2023-08-30T12:57:47;2.63;;;2.13;;
15104;SDS011;7653;48.994;9.212;2023-08-30T13:00:13;2.43;;;1.87;;
15104;SDS011;7653;48.994;9.212;2023-08-30T13:02:39;2.30;;;2.10;;
15104;SDS011;7653;48.994;9.212;2023-08-30T13:05:05;5.90;;;2.40;;
15104;SDS011;7653;48.994;9.212;2023-08-30T13:07:31;2.43;;;2.10;;
15104;SDS011;7653;48.994;9.212;2023-08-30T13:09:56;2.83;;;2.13;;
15104;SDS011;7653;48.994;9.212;2023-08-30T13:12:22;3.10;;;2.20;;
15104;SDS011;7653;48.994;9.212;2023-08-30T13:14:49;2.60;;;2.40;;
15104;SDS011;7653;48.994;9.212;2023-08-30T13:17:14;2.37;;;2.07;;
15104;SDS011;7653;48.994;9.212;2023-08-30T13:19:42;2.33;;;2.13;;
15104;SDS011;7653;48.994;9.212;2023-08-30T13:22:08;2.90;;;2.43;;
15104;SDS011;7653;48.994;9.212;2023-08-30T13:24:35;2.80;;;2.40;;
15104;SDS011;7653;48.994;9.212;2023-08-30T13:27:00;5.53;;;2.40;;
15104;SDS011;7653;48.994;9.212;2023-08-30T13:29:26;2.10;;;1.90;;
15104;SDS011;7653;48.994;9.212;2023-08-30T13:31:52;3.00;;;2.10;;
15104;SDS011;7653;48.994;9.212;2023-08-30T13:34:17;3.33;;;2.20;;
15104;SDS011;7653;48.994;9.212;2023-08-30T13:36:43;3.60;;;1.80;;
15104;SDS011;7653;48.994;9.212;2023-08-30T13:39:09;2.30;;;2.10;;
15104;SDS011;7653;48.994;9.212;2023-08-30T13:41:34;3.05;;;1.98;;
15104;SDS011;7653;48.994;9.212;2023-08-30T13:44:01;2.40;;;2.15;;
15104;SDS011;7653;48.994;9.212;2023-08-30T13:46:28;3.55;;;2.20;;
15104;SDS011;7653;48.994;9.212;2023-08-30T13:48:55;2.20;;;2.00;;
15104;SDS011;7653;48.994;9.212;2023-08-30T13:51:24;2.33;;;2.00;;
15104;SDS011;7653;48.994;9.212;2023-08-30T13:53:50;2.20;;;2.00;;
15104;SDS011;7653;48.994;9.212;2023-08-30T13:56:17;2.92;;;2.25;;
15104;SDS011;7653;48.994;9.212;2023-08-30T13:58:44;2.15;;;1.90;;
15104;SDS011;7653;48.994;9.212;2023-08-30T14:01:10;2.28;;;2.08;;
15104;SDS011;7653;48.994;9.212;2023-08-30T14:03:35;2.47;;;1.98;;
15104;SDS011;7653;48.994;9.212;2023-08-30T14:06:01;2.30;;;2.10;;
15104;SDS011;7653;48.994;9.212;2023-08-30T14:08:27;3.58;;;2.05;;
15104;SDS011;7653;48.994;9.212;2023-08-30T14:10:54;3.25;;;2.30;;
15104;SDS011;7653;48.994;9.212;2023-08-30T14:13:20;2.63;;;2.10;;
15104;SDS011;7653;48.994;9.212;2023-08-30T14:15:47;2.40;;;2.05;;
15104;SDS011;7653;48.994;9.212;2023-08-30T14:18:13;3.67;;;2.63;;
15104;SDS011;7653;48.994;9.212;2023-08-30T14:20:43;2.47;;;2.10;;
15104;SDS011;7653;48.994;9.212;2023-08-30T14:23:08;3.03;;;2.27;;
15104;SDS011;7653;48.994;9.212;2023-08-30T14:25:34;4.03;;;2.30;;
15104;SDS011;7653;48.994;9.212;2023-08-30T14:28:01;3.20;;;2.30;;
15104;SDS011;7653;48.994;9.212;2023-08-30T14:30:28;2.73;;;2.20;;
15104;SDS011;7653;48.994;9.212;2023-08-30T14:32:53;3.37;;;2.53;;
15104;SDS011;7653;48.994;9.212;2023-08-30T14:35:19;3.57;;;2.00;;
15104;SDS011;7653;48.994;9.212;2023-08-30T14:37:53;2.83;;;2.20;;
15104;SDS011;7653;48.994;9.212;2023-08-30T14:40:20;2.47;;;2.10;;
15104;SDS011;7653;48.994;9.212;2023-08-30T14:42:45;2.65;;;2.05;;
15104;SDS011;7653;48.994;9.212;2023-08-30T14:45:11;2.38;;;2.10;;
15104;SDS011;7653;48.994;9.212;2023-08-30T14:47:37;2.13;;;1.85;;
15104;SDS011;7653;48.994;9.212;2023-08-30T14:50:03;1.95;;;1.85;;
15104;SDS011;7653;48.994;9.212;2023-08-30T14:52:29;2.20;;;1.88;;
15104;SDS011;7653;48.994;9.212;2023-08-30T14:54:55;1.80;;;1.55;;
15104;SDS011;7653;48.994;9.212;2023-08-30T14:57:21;3.17;;;1.80;;
15104;SDS011;7653;48.994;9.212;2023-08-30T14:59:47;3.00;;;1.90;;
15104;SDS011;7653;48.994;9.212;2023-08-30T15:02:13;2.45;;;1.90;;